Terminal Aerodrome Forecast
Issued by NWS Grand Forks, ND

Home | Current Version | Previous Version | Graphics & Text | Print | Product List | Glossary On
Versions: 1 2 3 4 5 6 7 8 9 10 11 12 13 14 15 16 17 18
000
FTUS43 KFGF 161734
TAFFAR
TAF
KFAR 161734Z 1618/1718 20012KT P6SM SCT200
     FM170200 20012KT P6SM BKN100
     FM170600 21008KT P6SM BKN090
     FM171100 26006KT P6SM SCT120
     FM171400 29007KT P6SM BKN110
     FM171700 30010KT P6SM SCT110=

USA.gov is the U.S. government's official web portal to all federal, state and local government web resources and services.